Time;durP1;ratioP1;P1;durP2;ratioP2;P2;SDS_P1;SDS_P2;PMS_P1;PMS_P2;Temp;Humidity;BMP_temperature;BMP_pressure;BME280_temperature;BME280_humidity;BME280_pressure;Samples;Min_cycle;Max_cycle;Signal;HPM_P1;HPM_P2
2021/05/05 00:00:19;;;;;;;3.90;3.38;;;;;;;9.72;100.00;94624.81;1043261;28;20078;-72
2021/05/05 00:00:49;;;;;;;3.88;3.50;;;;;;;9.82;100.00;94643.03;1046271;28;20024;-72
2021/05/05 00:01:20;;;;;;;4.82;3.58;;;;;;;9.72;100.00;94633.47;1039430;28;20268;-71
2021/05/05 00:01:51;;;;;;;6.25;3.42;;;;;;;9.79;100.00;94639.16;1038822;28;20079;-71
2021/05/05 00:02:21;;;;;;;4.78;3.40;;;;;;;9.77;100.00;94637.88;1041243;28;20105;-71
2021/05/05 00:02:52;;;;;;;3.90;3.50;;;;;;;9.77;100.00;94645.72;1039889;28;20268;-71
2021/05/05 00:03:22;;;;;;;3.47;3.17;;;;;;;9.72;100.00;94632.69;1039309;28;20022;-70
2021/05/05 00:03:53;;;;;;;3.50;3.20;;;;;;;9.69;100.00;94626.16;1034608;28;20503;-72
2021/05/05 00:04:23;;;;;;;3.85;3.47;;;;;;;9.77;100.00;94630.00;1026601;28;20027;-71
2021/05/05 00:04:54;;;;;;;6.10;3.42;;;;;;;9.76;100.00;94641.53;1042860;28;20025;-71
2021/05/05 00:05:24;;;;;;;7.60;3.70;;;;;;;9.67;100.00;94636.94;1038040;28;20029;-71
2021/05/05 00:05:55;;;;;;;4.82;3.60;;;;;;;9.54;100.00;94606.22;1047137;28;20089;-72
2021/05/05 00:06:26;;;;;;;3.75;3.25;;;;;;;9.76;100.00;94644.16;1034705;28;20041;-70
2021/05/05 00:06:57;;;;;;;6.43;3.20;;;;;;;9.73;100.00;94632.41;1038749;28;20029;-72
2021/05/05 00:07:27;;;;;;;3.95;3.55;;;;;;;9.77;100.00;94645.72;1039156;28;20497;-71
2021/05/05 00:07:58;;;;;;;4.65;3.75;;;;;;;9.74;100.00;94635.81;1038397;28;20283;-72
2021/05/05 00:08:31;;;;;;;5.35;3.78;;;;;;;9.74;100.00;94635.81;1030753;28;20018;-71
2021/05/05 00:09:02;;;;;;;3.88;3.28;;;;;;;9.76;100.00;94639.72;1031166;28;20508;-71
2021/05/05 00:09:35;;;;;;;3.90;3.42;;;;;;;9.72;100.00;94638.69;1031361;28;20065;-72
2021/05/05 00:10:06;;;;;;;5.40;3.33;;;;;;;9.75;100.00;94642.59;1035918;28;20265;-72
2021/05/05 00:10:36;;;;;;;3.50;3.17;;;;;;;9.76;100.00;94638.91;1039488;28;20025;-70
2021/05/05 00:11:07;;;;;;;4.05;3.03;;;;;;;9.69;100.00;94628.78;1043274;28;20478;-70
2021/05/05 00:11:37;;;;;;;3.38;2.92;;;;;;;9.73;100.00;94629.03;1042848;28;20032;-71
2021/05/05 00:12:08;;;;;;;4.57;2.90;;;;;;;9.66;100.00;94630.16;1034734;28;20030;-70
2021/05/05 00:12:38;;;;;;;4.80;3.30;;;;;;;9.71;100.00;94631.91;1038663;28;20022;-71
2021/05/05 00:13:09;;;;;;;4.22;3.83;;;;;;;9.70;100.00;94637.44;1035307;28;20400;-71
2021/05/05 00:13:39;;;;;;;4.47;3.38;;;;;;;9.68;100.00;94624.63;1043235;28;20021;-71
2021/05/05 00:14:10;;;;;;;6.80;3.70;;;;;;;9.63;100.00;94628.09;1041325;28;20029;-71
2021/05/05 00:14:41;;;;;;;7.00;3.53;;;;;;;9.64;100.00;94631.50;1039999;28;20560;-69
2021/05/05 00:15:19;;;;;;;6.30;3.28;;;;;;;9.62;100.00;94631.78;1041999;28;20645;-71
2021/05/05 00:15:50;;;;;;;3.50;3.20;;;;;;;9.59;100.00;94627.13;1038864;28;20491;-72
2021/05/05 00:16:20;;;;;;;3.42;3.10;;;;;;;9.56;100.00;94632.16;1036742;28;20261;-71
2021/05/05 00:16:51;;;;;;;3.50;2.97;;;;;;;9.54;100.00;94631.63;1035872;28;20741;-71
2021/05/05 00:17:21;;;;;;;3.92;3.45;;;;;;;9.44;100.00;94616.84;1034970;28;20026;-71
2021/05/05 00:17:51;;;;;;;6.53;3.75;;;;;;;9.54;100.00;94626.41;1044573;28;20035;-71
2021/05/05 00:18:22;;;;;;;3.65;3.30;;;;;;;9.52;100.00;94626.66;1051016;28;20115;-71
2021/05/05 00:18:52;;;;;;;5.93;3.40;;;;;;;9.48;100.00;94627.53;1042810;28;20021;-70
2021/05/05 00:19:23;;;;;;;3.47;3.17;;;;;;;9.52;100.00;94626.66;1042947;28;20029;-71
2021/05/05 00:19:53;;;;;;;6.88;3.75;;;;;;;9.48;100.00;94628.28;1034606;28;20022;-71
2021/05/05 00:20:24;;;;;;;4.10;3.45;;;;;;;9.48;100.00;94630.16;1039099;28;20026;-71
2021/05/05 00:20:54;;;;;;;5.63;3.55;;;;;;;9.45;100.00;94624.41;1039136;28;20017;-72
2021/05/05 00:21:25;;;;;;;4.18;3.20;;;;;;;9.36;100.00;94615.63;1038848;28;20569;-70
2021/05/05 00:21:55;;;;;;;4.43;3.63;;;;;;;9.46;100.00;94627.81;1034578;28;20474;-70
2021/05/05 00:22:26;;;;;;;4.53;3.67;;;;;;;9.43;100.00;94620.53;1035786;28;20428;-70
2021/05/05 00:22:56;;;;;;;5.68;3.22;;;;;;;9.40;100.00;94626.31;1037772;28;20067;-70
2021/05/05 00:23:27;;;;;;;3.63;3.08;;;;;;;9.44;100.00;94624.69;1043048;28;20028;-68
2021/05/05 00:23:57;;;;;;;6.07;3.30;;;;;;;9.42;100.00;94624.19;1043136;28;20017;-70
2021/05/05 00:24:31;;;;;;;3.55;3.17;;;;;;;9.41;100.00;94626.03;1050999;28;20025;-71
2021/05/05 00:25:02;;;;;;;4.85;3.63;;;;;;;9.35;100.00;94626.38;1042648;28;20071;-72
2021/05/05 00:25:32;;;;;;;4.53;3.63;;;;;;;9.40;100.00;94624.47;1034587;28;20355;-72
2021/05/05 00:26:03;;;;;;;5.03;3.45;;;;;;;9.41;100.00;94627.88;1026190;28;20262;-71
2021/05/05 00:26:33;;;;;;;5.22;3.42;;;;;;;9.43;100.00;94620.53;1034844;28;20022;-71
2021/05/05 00:27:04;;;;;;;4.25;3.38;;;;;;;9.47;100.00;94628.59;1038794;28;20018;-69
2021/05/05 00:27:35;;;;;;;3.47;3.17;;;;;;;9.47;100.00;94618.91;1042626;28;20025;-70
2021/05/05 00:28:05;;;;;;;4.00;3.20;;;;;;;9.44;100.00;94616.84;1034698;28;20018;-68
2021/05/05 00:28:39;;;;;;;4.80;3.30;;;;;;;9.32;100.00;94604.19;1030814;28;20018;-70
2021/05/05 00:29:12;;;;;;;5.75;3.13;;;;;;;9.42;100.00;94617.13;1038074;28;20029;-71
2021/05/05 00:29:42;;;;;;;5.30;3.08;;;;;;;9.41;100.00;94615.56;1040704;28;20287;-70
2021/05/05 00:30:13;;;;;;;4.07;3.50;;;;;;;9.42;100.00;94618.94;1042908;28;20286;-70
2021/05/05 00:30:43;;;;;;;3.55;3.17;;;;;;;9.36;100.00;94614.88;1042134;28;20025;-71
2021/05/05 00:31:17;;;;;;;3.47;3.17;;;;;;;9.43;100.00;94617.91;1043482;28;20024;-72
2021/05/05 00:31:47;;;;;;;6.03;3.53;;;;;;;9.40;100.00;94614.00;1034718;28;20291;-72
2021/05/05 00:32:18;;;;;;;4.13;3.10;;;;;;;9.43;100.00;94616.06;1038850;28;20052;-71
2021/05/05 00:32:48;;;;;;;3.70;2.85;;;;;;;9.45;100.00;94615.75;1032703;28;20065;-70
2021/05/05 00:33:19;;;;;;;4.18;3.33;;;;;;;9.39;100.00;94611.69;1038565;28;20049;-70
2021/05/05 00:33:49;;;;;;;3.65;3.28;;;;;;;9.41;100.00;94622.63;1043053;28;20099;-71
2021/05/05 00:34:20;;;;;;;4.18;3.53;;;;;;;9.34;100.00;94606.50;1047004;28;20604;-70
2021/05/05 00:34:50;;;;;;;3.60;3.10;;;;;;;9.35;100.00;94608.81;1047181;28;20025;-70
2021/05/05 00:35:21;;;;;;;4.65;3.15;;;;;;;9.40;100.00;94621.88;1046104;28;20024;-68
2021/05/05 00:35:51;;;;;;;5.32;4.00;;;;;;;9.40;100.00;94621.09;1038939;28;20554;-70
2021/05/05 00:36:22;;;;;;;3.53;2.90;;;;;;;9.39;100.00;94614.31;1034347;28;20032;-70
2021/05/05 00:36:52;;;;;;;3.53;3.20;;;;;;;9.41;100.00;94617.41;1034987;28;20028;-71
2021/05/05 00:37:22;;;;;;;4.63;3.05;;;;;;;9.40;100.00;94615.84;1042828;28;20107;-71
2021/05/05 00:37:53;;;;;;;3.45;3.15;;;;;;;9.39;100.00;94617.69;1046936;28;20043;-70
2021/05/05 00:38:23;;;;;;;3.17;2.88;;;;;;;9.33;100.00;94604.94;1043017;28;20017;-71
2021/05/05 00:38:54;;;;;;;3.88;3.33;;;;;;;9.41;100.00;94617.41;1038760;28;20025;-71
2021/05/05 00:39:24;;;;;;;3.33;3.03;;;;;;;9.41;100.00;94605.09;1037969;28;20025;-72
2021/05/05 00:39:56;;;;;;;3.38;3.03;;;;;;;9.32;100.00;94604.19;1034973;28;20053;-70
2021/05/05 00:40:29;;;;;;;4.70;3.40;;;;;;;9.36;100.00;94601.78;1030824;28;20085;-72
2021/05/05 00:40:59;;;;;;;4.10;3.10;;;;;;;9.35;100.00;94605.44;1034826;28;20364;-70
2021/05/05 00:41:30;;;;;;;4.25;3.35;;;;;;;9.29;100.00;94603.94;1030474;28;20401;-71
2021/05/05 00:42:03;;;;;;;5.13;3.42;;;;;;;9.33;100.00;94604.94;1040324;28;20025;-71
2021/05/05 00:42:33;;;;;;;4.15;3.55;;;;;;;9.32;100.00;94604.19;1038489;28;20159;-69
2021/05/05 00:43:04;;;;;;;3.75;3.25;;;;;;;9.32;100.00;94608.63;1034334;28;20495;-70
2021/05/05 00:43:34;;;;;;;4.93;3.00;;;;;;;9.31;100.00;94607.06;1030605;28;20496;-71
2021/05/05 00:44:05;;;;;;;3.47;3.17;;;;;;;9.31;100.00;94604.44;1038749;28;20029;-72
2021/05/05 00:44:35;;;;;;;3.83;3.22;;;;;;;9.32;100.00;94603.38;1038579;28;20624;-71
2021/05/05 00:45:08;;;;;;;3.95;3.47;;;;;;;9.25;100.00;94593.25;1038316;28;20029;-69
2021/05/05 00:45:39;;;;;;;3.65;3.30;;;;;;;9.31;100.00;94601.81;1042659;28;20068;-72
2021/05/05 00:46:09;;;;;;;3.42;3.05;;;;;;;9.27;100.00;94595.59;1034816;28;20810;-72
2021/05/05 00:46:39;;;;;;;3.47;3.15;;;;;;;9.28;100.00;94603.16;1038941;28;20033;-70
2021/05/05 00:47:10;;;;;;;5.30;3.28;;;;;;;9.26;100.00;94600.06;1038926;28;20029;-71
2021/05/05 00:47:43;;;;;;;6.22;3.40;;;;;;;9.15;100.00;94586.34;1038851;28;20022;-71
2021/05/05 00:48:14;;;;;;;3.67;3.10;;;;;;;9.21;100.00;94598.28;1041521;28;20020;-70
2021/05/05 00:48:44;;;;;;;3.92;3.53;;;;;;;9.19;100.00;94591.78;1042971;28;20301;-71
2021/05/05 00:49:17;;;;;;;5.07;3.65;;;;;;;9.18;100.00;94593.59;1043319;28;20033;-71
2021/05/05 00:49:47;;;;;;;4.15;3.38;;;;;;;9.17;100.00;94586.81;1044359;28;20145;-71
2021/05/05 00:50:18;;;;;;;5.55;3.28;;;;;;;9.16;100.00;94595.75;1039281;28;20299;-72
2021/05/05 00:50:48;;;;;;;4.47;3.25;;;;;;;9.14;100.00;94595.22;1043013;28;20029;-69
2021/05/05 00:51:19;;;;;;;4.10;3.00;;;;;;;9.12;100.00;94591.31;1042191;28;20029;-70
2021/05/05 00:51:49;;;;;;;3.72;3.40;;;;;;;9.12;100.00;94594.75;1042897;28;20036;-71
2021/05/05 00:52:20;;;;;;;6.20;3.20;;;;;;;9.09;100.00;94594.53;1043025;28;20061;-71
2021/05/05 00:52:51;;;;;;;4.22;3.47;;;;;;;9.10;100.00;94586.38;1043318;28;20021;-71
2021/05/05 00:53:21;;;;;;;4.30;2.92;;;;;;;9.12;100.00;94594.75;1050744;28;20515;-71
2021/05/05 00:53:51;;;;;;;3.72;3.20;;;;;;;9.13;100.00;94601.53;1046924;28;20025;-70
2021/05/05 00:54:22;;;;;;;3.30;3.00;;;;;;;9.11;100.00;94601.03;1042859;28;20095;-71
2021/05/05 00:54:52;;;;;;;4.82;3.58;;;;;;;9.10;100.00;94596.84;1041240;28;20025;-71
2021/05/05 00:55:23;;;;;;;4.60;3.45;;;;;;;9.11;100.00;94600.25;1042167;28;20021;-69
2021/05/05 00:55:53;;;;;;;4.25;3.20;;;;;;;9.12;100.00;94599.97;1046750;28;20039;-69
2021/05/05 00:56:24;;;;;;;3.33;3.00;;;;;;;9.13;100.00;94601.53;1038920;28;20116;-70
2021/05/05 00:56:54;;;;;;;4.20;3.17;;;;;;;9.09;100.00;94595.31;1043011;28;20039;-70
2021/05/05 00:57:25;;;;;;;3.22;2.92;;;;;;;9.02;100.00;94589.66;1034653;28;20025;-71
2021/05/05 00:57:55;;;;;;;4.07;3.35;;;;;;;9.10;100.00;94607.31;1046941;28;20043;-70
2021/05/05 00:58:26;;;;;;;3.45;3.05;;;;;;;9.10;100.00;94607.31;1043871;28;20032;-71
2021/05/05 00:58:56;;;;;;;6.10;3.63;;;;;;;9.03;100.00;94593.03;1038904;28;20022;-69
2021/05/05 00:59:27;;;;;;;3.95;3.17;;;;;;;9.02;100.00;94607.97;1034468;28;20022;-70
2021/05/05 00:59:57;;;;;;;4.32;3.10;;;;;;;9.01;100.00;94603.00;1035591;28;20029;-69
2021/05/05 01:00:28;;;;;;;3.53;3.22;;;;;;;9.01;100.00;94603.00;1038464;28;20083;-71
2021/05/05 01:00:58;;;;;;;4.30;3.13;;;;;;;8.98;100.00;94605.09;1039009;28;20025;-71
2021/05/05 01:01:29;;;;;;;5.50;3.50;;;;;;;8.97;100.00;94602.78;1038701;28;20033;-71
2021/05/05 01:01:59;;;;;;;3.83;2.97;;;;;;;8.96;100.00;94606.47;1044211;28;20053;-70
2021/05/05 01:02:30;;;;;;;5.53;3.00;;;;;;;8.94;100.00;94603.31;1038625;28;20568;-71
2021/05/05 01:03:00;;;;;;;5.00;3.38;;;;;;;8.94;100.00;94600.72;1038848;28;20025;-70
2021/05/05 01:03:34;;;;;;;5.75;3.42;;;;;;;8.91;100.00;94596.03;1037729;28;20029;-71
2021/05/05 01:04:04;;;;;;;6.05;3.33;;;;;;;8.90;100.00;94603.09;1031701;28;20022;-71
2021/05/05 01:04:34;;;;;;;6.03;3.20;;;;;;;8.87;100.00;94602.88;1039682;28;20363;-70
2021/05/05 01:05:06;;;;;;;4.88;3.53;;;;;;;8.78;100.00;94591.47;1040730;28;20044;-71
2021/05/05 01:05:37;;;;;;;5.97;3.80;;;;;;;8.82;100.00;94605.56;1034665;28;20014;-71
2021/05/05 01:06:07;;;;;;;4.53;3.50;;;;;;;8.82;100.00;94608.16;1038844;28;20264;-70
2021/05/05 01:06:40;;;;;;;4.72;3.67;;;;;;;8.79;100.00;94604.28;1039144;28;20021;-72
2021/05/05 01:07:11;;;;;;;4.88;3.45;;;;;;;8.77;100.00;94609.00;1042750;28;20259;-71
2021/05/05 01:07:41;;;;;;;3.80;3.20;;;;;;;8.79;100.00;94600.91;1042587;28;20026;-69
2021/05/05 01:08:12;;;;;;;3.33;3.03;;;;;;;8.78;100.00;94607.94;1042903;28;20036;-71
2021/05/05 01:08:44;;;;;;;4.85;3.40;;;;;;;8.76;100.00;94607.47;1038460;28;20102;-69
2021/05/05 01:09:15;;;;;;;3.75;3.00;;;;;;;8.81;100.00;94604.00;1035032;28;20030;-70
2021/05/05 01:09:46;;;;;;;3.92;3.35;;;;;;;8.74;100.00;94599.88;1038154;28;20268;-72
2021/05/05 01:10:16;;;;;;;4.22;3.30;;;;;;;8.80;100.00;94600.63;1031051;28;20022;-71
2021/05/05 01:10:48;;;;;;;3.90;3.50;;;;;;;8.74;100.00;94592.03;1030717;28;20250;-72
2021/05/05 01:11:21;;;;;;;3.60;3.00;;;;;;;8.65;100.00;94587.69;1032501;28;20022;-72
2021/05/05 01:11:52;;;;;;;4.90;3.55;;;;;;;8.62;100.00;94591.66;1041467;28;20271;-69
2021/05/05 01:12:22;;;;;;;4.55;3.33;;;;;;;8.64;100.00;94594.00;1042813;28;20248;-69
2021/05/05 01:12:53;;;;;;;5.68;3.58;;;;;;;8.66;100.00;94595.28;1039639;28;20045;-71
2021/05/05 01:13:24;;;;;;;3.80;3.38;;;;;;;8.64;100.00;94599.22;1038648;28;20032;-71
2021/05/05 01:13:55;;;;;;;5.13;3.75;;;;;;;8.63;100.00;94597.66;1039316;28;20329;-70
2021/05/05 01:14:25;;;;;;;4.32;3.92;;;;;;;8.52;100.00;94585.75;1047184;28;20077;-70
2021/05/05 01:14:55;;;;;;;7.45;4.28;;;;;;;8.56;100.00;94592.78;1034563;28;20026;-71
2021/05/05 01:15:26;;;;;;;5.03;3.33;;;;;;;8.54;100.00;94592.25;1037817;28;20030;-69
2021/05/05 01:15:56;;;;;;;4.93;3.90;;;;;;;8.51;100.00;94598.03;1038849;28;20014;-71
2021/05/05 01:16:27;;;;;;;4.85;3.40;;;;;;;8.49;100.00;94593.09;1038267;28;20032;-71
2021/05/05 01:16:57;;;;;;;4.32;3.92;;;;;;;8.50;100.00;94593.88;1046736;28;20505;-68
2021/05/05 01:17:32;;;;;;;4.30;3.75;;;;;;;8.48;100.00;94591.56;1046973;28;20691;-71
2021/05/05 01:18:03;;;;;;;6.50;3.75;;;;;;;8.40;100.00;94579.06;1039053;28;20896;-71
2021/05/05 01:18:33;;;;;;;3.60;3.30;;;;;;;8.48;100.00;94590.75;1038652;28;20268;-70
2021/05/05 01:19:04;;;;;;;4.63;3.55;;;;;;;8.36;100.00;94582.50;1038703;28;20025;-72
2021/05/05 01:19:34;;;;;;;4.25;3.70;;;;;;;8.41;100.00;94587.69;1038334;28;20032;-71
2021/05/05 01:20:05;;;;;;;4.38;3.35;;;;;;;8.37;100.00;94578.81;1038666;28;20079;-68
2021/05/05 01:20:36;;;;;;;6.28;3.40;;;;;;;8.35;100.00;94581.72;1042835;28;20379;-71
2021/05/05 01:21:06;;;;;;;3.75;3.45;;;;;;;8.40;100.00;94584.28;1034476;28;20030;-69
2021/05/05 01:21:37;;;;;;;6.00;3.38;;;;;;;8.40;100.00;94589.53;1034463;28;20438;-71
2021/05/05 01:22:07;;;;;;;5.85;3.70;;;;;;;8.38;100.00;94601.31;1038603;28;20431;-69
2021/05/05 01:22:38;;;;;;;6.45;3.90;;;;;;;8.37;100.00;94597.09;1038918;28;20029;-69
2021/05/05 01:23:08;;;;;;;4.38;3.90;;;;;;;8.37;100.00;94597.88;1046722;28;20043;-70
2021/05/05 01:23:38;;;;;;;4.22;3.83;;;;;;;8.27;100.00;94590.13;1047118;28;20028;-69
2021/05/05 01:24:12;;;;;;;6.05;3.60;;;;;;;8.32;100.00;94602.41;1039136;28;20021;-68
2021/05/05 01:24:45;;;;;;;5.85;3.92;;;;;;;8.35;100.00;94607.84;1039611;28;20097;-70
2021/05/05 01:25:18;;;;;;;4.40;4.00;;;;;;;8.31;100.00;94592.97;1042146;28;20263;-70
2021/05/05 01:25:51;;;;;;;4.50;3.90;;;;;;;8.33;100.00;94606.56;1043419;28;20092;-69
2021/05/05 01:26:21;;;;;;;5.03;3.40;;;;;;;8.32;100.00;94599.78;1035854;28;20343;-70
2021/05/05 01:26:52;;;;;;;3.90;3.50;;;;;;;8.22;100.00;94583.13;1042908;28;20741;-69
2021/05/05 01:27:22;;;;;;;5.00;3.90;;;;;;;8.30;100.00;94594.03;1033991;28;20022;-71
2021/05/05 01:27:53;;;;;;;6.85;3.47;;;;;;;8.29;100.00;94582.81;1034721;28;20018;-69
2021/05/05 01:28:23;;;;;;;4.82;4.32;;;;;;;8.29;100.00;94592.50;1034769;28;20471;-70
2021/05/05 01:28:57;;;;;;;11.15;4.30;;;;;;;8.24;100.00;94590.69;1030616;28;20073;-69
2021/05/05 01:29:27;;;;;;;5.07;4.03;;;;;;;8.20;100.00;94585.25;1042407;28;20367;-68
2021/05/05 01:29:58;;;;;;;4.82;3.50;;;;;;;8.20;100.00;94589.69;1043449;28;20270;-69
2021/05/05 01:30:28;;;;;;;5.63;4.50;;;;;;;8.17;100.00;94591.00;1043313;28;20013;-70
2021/05/05 01:30:59;;;;;;;5.65;4.13;;;;;;;8.16;100.00;94591.31;1046338;28;20016;-70
2021/05/05 01:31:29;;;;;;;5.13;3.70;;;;;;;8.15;100.00;94593.13;1042676;28;20021;-70
2021/05/05 01:32:00;;;;;;;6.15;4.15;;;;;;;8.08;100.00;94579.63;1047147;28;20048;-67
2021/05/05 01:32:30;;;;;;;6.35;5.00;;;;;;;8.12;100.00;94577.22;1042421;28;20013;-68
2021/05/05 01:33:01;;;;;;;5.28;4.15;;;;;;;8.13;100.00;94579.56;1043015;28;20013;-68
2021/05/05 01:33:31;;;;;;;6.03;3.95;;;;;;;8.13;100.00;94579.56;1038423;28;20029;-69
2021/05/05 01:34:02;;;;;;;4.43;3.80;;;;;;;8.15;100.00;94589.72;1038650;28;20021;-70
2021/05/05 01:34:33;;;;;;;6.25;4.43;;;;;;;8.13;100.00;94589.22;1034979;28;20028;-70
2021/05/05 01:35:05;;;;;;;4.32;3.92;;;;;;;8.14;100.00;94586.34;1042660;28;20109;-69
2021/05/05 01:35:35;;;;;;;6.32;4.28;;;;;;;8.13;100.00;94587.41;1045576;28;20281;-70
2021/05/05 01:36:06;;;;;;;4.28;3.67;;;;;;;8.13;100.00;94586.63;1043039;28;20279;-68
2021/05/05 01:36:37;;;;;;;4.60;3.80;;;;;;;8.04;100.00;94575.97;1051128;28;20008;-70
2021/05/05 01:37:07;;;;;;;5.75;5.25;;;;;;;8.12;100.00;94585.84;1038714;28;20052;-69
2021/05/05 01:37:40;;;;;;;4.72;4.22;;;;;;;8.07;100.00;94591.09;1030068;28;20018;-69
2021/05/05 01:38:11;;;;;;;7.43;4.07;;;;;;;8.11;100.00;94592.09;1042794;28;20604;-67
2021/05/05 01:38:41;;;;;;;5.57;4.30;;;;;;;8.08;100.00;94597.91;1047036;28;20278;-69
2021/05/05 01:39:16;;;;;;;4.85;3.83;;;;;;;8.05;100.00;94585.38;1046941;28;20028;-68
2021/05/05 01:39:46;;;;;;;4.45;4.05;;;;;;;8.08;100.00;94597.91;1041973;28;20040;-70
2021/05/05 01:40:28;;;;;;;4.80;4.07;;;;;;;7.99;100.00;94583.88;1039827;28;20257;-71
2021/05/05 01:40:59;;;;;;;5.85;5.03;;;;;;;8.03;100.00;94585.66;1046754;28;20407;-69
2021/05/05 01:41:29;;;;;;;5.25;4.75;;;;;;;8.01;100.00;94593.00;1040429;28;20653;-68
2021/05/05 01:42:00;;;;;;;5.20;4.70;;;;;;;7.95;100.00;94578.41;1038620;28;20024;-68
2021/05/05 01:42:30;;;;;;;6.90;4.47;;;;;;;8.01;100.00;94584.34;1030387;28;20014;-69
2021/05/05 01:43:02;;;;;;;5.85;3.85;;;;;;;8.03;100.00;94590.09;1033770;28;20029;-68
2021/05/05 01:43:33;;;;;;;5.93;4.90;;;;;;;8.03;100.00;94590.09;1036789;28;20029;-68
2021/05/05 01:44:04;;;;;;;6.43;4.90;;;;;;;8.00;100.00;94586.19;1035880;28;20286;-70
2021/05/05 01:44:38;;;;;;;5.65;4.25;;;;;;;8.02;100.00;94591.94;1035433;28;20391;-68
2021/05/05 01:45:13;;;;;;;5.93;4.95;;;;;;;8.00;100.00;94588.81;1046326;28;20282;-69
2021/05/05 01:45:46;;;;;;;8.07;4.78;;;;;;;7.98;100.00;94588.31;1042625;28;20804;-68
2021/05/05 01:46:17;;;;;;;4.97;4.05;;;;;;;7.99;100.00;94594.31;1046882;28;20285;-69
2021/05/05 01:46:48;;;;;;;7.20;4.55;;;;;;;7.98;100.00;94587.50;1041815;28;20025;-68
2021/05/05 01:47:18;;;;;;;5.47;4.90;;;;;;;7.88;100.00;94582.38;1039293;28;20276;-69
2021/05/05 01:48:00;;;;;;;5.82;4.70;;;;;;;7.87;100.00;94570.38;1044464;28;20430;-68
2021/05/05 01:48:31;;;;;;;6.20;5.03;;;;;;;7.94;100.00;94587.28;1044422;28;20024;-68
2021/05/05 01:49:01;;;;;;;6.18;4.22;;;;;;;7.94;100.00;94586.50;1047085;28;20781;-70
2021/05/05 01:49:32;;;;;;;10.27;4.80;;;;;;;7.93;100.00;94590.19;1044678;28;20070;-69
2021/05/05 01:50:06;;;;;;;5.93;3.85;;;;;;;7.94;100.00;94596.97;1037563;28;20064;-68
2021/05/05 01:50:36;;;;;;;4.43;4.03;;;;;;;7.96;100.00;94589.63;1035759;28;20045;-68
2021/05/05 01:51:07;;;;;;;6.00;4.60;;;;;;;7.93;100.00;94592.78;1038607;28;20280;-70
2021/05/05 01:51:37;;;;;;;7.05;5.10;;;;;;;7.92;100.00;94599.09;1039090;28;20395;-66
2021/05/05 01:52:08;;;;;;;8.80;6.13;;;;;;;7.92;100.00;94596.47;1038620;28;20071;-68
2021/05/05 01:52:39;;;;;;;5.70;4.72;;;;;;;7.90;100.00;94595.94;1042762;28;20061;-68
2021/05/05 01:53:09;;;;;;;5.30;4.80;;;;;;;7.91;100.00;94597.50;1038410;28;21010;-67
2021/05/05 01:53:40;;;;;;;5.45;4.88;;;;;;;7.87;100.00;94586.03;1038844;28;20032;-68
2021/05/05 01:54:10;;;;;;;5.50;4.45;;;;;;;7.90;100.00;94591.50;1042766;28;20071;-70
2021/05/05 01:54:41;;;;;;;6.65;5.88;;;;;;;7.89;100.00;94594.41;1043759;28;20063;-70
2021/05/05 01:55:11;;;;;;;7.22;5.32;;;;;;;7.80;100.00;94581.91;1042823;28;20321;-69
2021/05/05 01:55:45;;;;;;;5.70;4.78;;;;;;;7.87;100.00;94591.28;1039354;28;20017;-68
2021/05/05 01:56:16;;;;;;;7.55;5.40;;;;;;;7.86;100.00;94589.72;1038736;28;20026;-67
2021/05/05 01:56:46;;;;;;;6.70;5.25;;;;;;;7.79;100.00;94585.59;1039216;28;20271;-68
2021/05/05 01:57:20;;;;;;;10.52;5.75;;;;;;;7.82;100.00;94593.94;1035462;28;20049;-69
2021/05/05 01:57:53;;;;;;;8.98;5.05;;;;;;;7.80;100.00;94588.97;1036163;28;20149;-68
2021/05/05 01:58:24;;;;;;;6.32;5.15;;;;;;;7.79;100.00;94590.81;1035977;28;20351;-68
2021/05/05 01:58:57;;;;;;;8.43;6.30;;;;;;;7.72;100.00;94579.91;1040297;28;20029;-68
2021/05/05 01:59:30;;;;;;;5.55;5.05;;;;;;;7.79;100.00;94584.81;1031270;28;20085;-65
2021/05/05 02:00:01;;;;;;;8.75;5.68;;;;;;;7.77;100.00;94579.84;1039211;28;20310;-68
2021/05/05 02:00:31;;;;;;;7.43;5.43;;;;;;;7.77;100.00;94584.28;1038282;28;20799;-67
2021/05/05 02:01:02;;;;;;;6.15;5.38;;;;;;;7.76;100.00;94577.53;1036755;28;20276;-69
2021/05/05 02:01:33;;;;;;;6.53;5.45;;;;;;;7.78;100.00;94583.25;1045675;28;20035;-67
2021/05/05 02:02:06;;;;;;;7.60;5.70;;;;;;;7.75;100.00;94579.34;1043651;28;20031;-69
2021/05/05 02:02:37;;;;;;;9.38;6.35;;;;;;;7.74;100.00;94587.44;1047212;28;20871;-68
2021/05/05 02:03:08;;;;;;;6.22;5.47;;;;;;;7.73;100.00;94581.44;1045446;28;20306;-69
2021/05/05 02:03:38;;;;;;;9.38;5.55;;;;;;;7.66;100.00;94569.75;1043546;28;20497;-68
2021/05/05 02:04:09;;;;;;;6.35;5.60;;;;;;;7.74;100.00;94580.38;1043420;28;20278;-68
2021/05/05 02:04:39;;;;;;;8.57;6.88;;;;;;;7.73;100.00;94588.50;1039286;28;20029;-68
2021/05/05 02:05:10;;;;;;;6.20;5.60;;;;;;;7.73;100.00;94584.06;1041876;28;20040;-67
2021/05/05 02:05:40;;;;;;;6.22;5.63;;;;;;;7.65;100.00;94574.22;1047233;28;20031;-68
2021/05/05 02:06:11;;;;;;;7.35;5.43;;;;;;;7.73;100.00;94589.28;1047349;28;20028;-67
2021/05/05 02:06:41;;;;;;;6.40;5.80;;;;;;;7.63;100.00;94567.69;1039033;28;20025;-66
2021/05/05 02:07:12;;;;;;;9.68;6.28;;;;;;;7.74;100.00;94582.22;1034881;28;20041;-66
2021/05/05 02:07:43;;;;;;;8.80;6.05;;;;;;;7.69;100.00;94580.44;1039368;28;20025;-68
2021/05/05 02:08:13;;;;;;;9.63;5.97;;;;;;;7.73;100.00;94585.91;1043379;28;20056;-68
2021/05/05 02:08:44;;;;;;;8.73;6.50;;;;;;;7.73;100.00;94580.66;1039230;28;20021;-67
2021/05/05 02:09:14;;;;;;;7.57;6.68;;;;;;;7.71;100.00;94586.19;1039330;28;20038;-67
2021/05/05 02:09:44;;;;;;;8.25;7.05;;;;;;;7.60;100.00;94576.84;1030785;28;20026;-67
2021/05/05 02:10:18;;;;;;;6.93;5.57;;;;;;;7.72;100.00;94584.34;1034424;28;20037;-69
2021/05/05 02:10:48;;;;;;;7.63;5.50;;;;;;;7.65;100.00;94576.03;1035209;28;20145;-67
2021/05/05 02:11:19;;;;;;;8.38;7.03;;;;;;;7.70;100.00;94576.78;1029287;28;20277;-69
2021/05/05 02:11:53;;;;;;;6.50;5.78;;;;;;;7.71;100.00;94580.97;1036109;28;20099;-69
2021/05/05 02:12:23;;;;;;;7.82;6.40;;;;;;;7.70;100.00;94587.22;1043924;28;20036;-68
2021/05/05 02:12:54;;;;;;;7.03;6.18;;;;;;;7.71;100.00;94580.16;1041416;28;20777;-68
2021/05/05 02:13:24;;;;;;;8.65;5.82;;;;;;;7.71;100.00;94578.34;1045040;28;20024;-69
2021/05/05 02:13:55;;;;;;;7.43;6.53;;;;;;;7.63;100.00;94568.47;1039393;28;20032;-68
2021/05/05 02:14:25;;;;;;;8.50;6.50;;;;;;;7.72;100.00;94579.13;1039527;28;20021;-66
2021/05/05 02:14:56;;;;;;;8.25;6.20;;;;;;;7.69;100.00;94575.22;1039154;28;20471;-69
2021/05/05 02:15:26;;;;;;;6.43;5.80;;;;;;;7.69;100.00;94570.00;1038526;28;20450;-68
2021/05/05 02:15:57;;;;;;;11.15;6.80;;;;;;;7.63;100.00;94560.63;1035332;28;20022;-69
2021/05/05 02:16:27;;;;;;;7.78;6.00;;;;;;;7.72;100.00;94574.69;1031311;28;20061;-66
2021/05/05 02:16:58;;;;;;;7.18;6.30;;;;;;;7.71;100.00;94569.72;1027169;28;20081;-67
2021/05/05 02:17:28;;;;;;;8.18;6.85;;;;;;;7.70;100.00;94573.38;1035091;28;20085;-67
2021/05/05 02:17:59;;;;;;;9.63;7.22;;;;;;;7.70;100.00;94576.78;1034983;28;20018;-68
2021/05/05 02:18:30;;;;;;;7.68;6.15;;;;;;;7.71;100.00;94578.34;1043234;28;20029;-68
2021/05/05 02:19:00;;;;;;;8.50;6.00;;;;;;;7.70;100.00;94576.78;1043582;28;20028;-67
2021/05/05 02:19:31;;;;;;;7.72;6.30;;;;;;;7.71;100.00;94583.56;1043307;28;20028;-68
2021/05/05 02:20:04;;;;;;;8.20;7.28;;;;;;;7.71;100.00;94573.13;1045709;28;20019;-68
2021/05/05 02:20:34;;;;;;;12.20;7.20;;;;;;;7.70;100.00;94582.00;1043525;28;20033;-67
2021/05/05 02:21:06;;;;;;;8.88;7.25;;;;;;;7.69;100.00;94575.22;1043834;28;20310;-68
2021/05/05 02:21:36;;;;;;;6.88;6.18;;;;;;;7.70;100.00;94581.22;1049766;28;20024;-69
2021/05/05 02:22:06;;;;;;;7.93;6.18;;;;;;;7.69;100.00;94570.00;1043821;28;20272;-68
2021/05/05 02:22:38;;;;;;;8.68;7.78;;;;;;;7.68;100.00;94567.66;1047614;28;20036;-68
2021/05/05 02:23:08;;;;;;;11.43;6.53;;;;;;;7.68;100.00;94573.66;1039365;28;20100;-67
2021/05/05 02:23:39;;;;;;;8.35;6.78;;;;;;;7.68;100.00;94567.66;1034887;28;20717;-69
2021/05/05 02:24:09;;;;;;;10.07;7.30;;;;;;;7.67;100.00;94561.66;1034801;28;20029;-68
2021/05/05 02:24:40;;;;;;;8.90;7.05;;;;;;;7.60;100.00;94561.19;1035528;28;20104;-69
2021/05/05 02:25:11;;;;;;;10.20;7.65;;;;;;;7.64;100.00;94566.63;1038793;28;20495;-69
2021/05/05 02:25:41;;;;;;;8.60;7.43;;;;;;;7.65;100.00;94571.59;1040296;28;20052;-67
2021/05/05 02:26:11;;;;;;;11.90;7.45;;;;;;;7.65;100.00;94573.44;1039313;28;20095;-66